sensor_id;sensor_type;location;lat;lon;timestamp;temperature;humidity
20341;DHT22;10328;50.042;8.238;2022-08-25T00:01:24;21.90;99.90
20341;DHT22;10328;50.042;8.238;2022-08-25T00:03:57;21.80;99.90
20341;DHT22;10328;50.042;8.238;2022-08-25T00:06:25;21.80;99.90
20341;DHT22;10328;50.042;8.238;2022-08-25T00:08:51;21.80;99.90
20341;DHT22;10328;50.042;8.238;2022-08-25T00:11:22;21.60;99.90
20341;DHT22;10328;50.042;8.238;2022-08-25T00:13:53;21.80;99.90
20341;DHT22;10328;50.042;8.238;2022-08-25T00:16:21;21.80;99.90
20341;DHT22;10328;50.042;8.238;2022-08-25T00:18:51;21.80;99.90
20341;DHT22;10328;50.042;8.238;2022-08-25T00:21:18;21.80;99.90
20341;DHT22;10328;50.042;8.238;2022-08-25T00:23:45;21.70;99.90
20341;DHT22;10328;50.042;8.238;2022-08-25T00:26:13;21.70;99.90
20341;DHT22;10328;50.042;8.238;2022-08-25T00:28:40;21.70;99.90
20341;DHT22;10328;50.042;8.238;2022-08-25T00:31:11;21.80;99.90
20341;DHT22;10328;50.042;8.238;2022-08-25T00:33:38;21.80;99.90
20341;DHT22;10328;50.042;8.238;2022-08-25T00:36:05;21.80;99.90
20341;DHT22;10328;50.042;8.238;2022-08-25T00:38:32;21.80;99.90
20341;DHT22;10328;50.042;8.238;2022-08-25T00:40:59;21.90;99.90
20341;DHT22;10328;50.042;8.238;2022-08-25T00:46:08;21.90;99.90
20341;DHT22;10328;50.042;8.238;2022-08-25T00:48:35;22.00;99.90
20341;DHT22;10328;50.042;8.238;2022-08-25T00:51:07;22.10;99.90
20341;DHT22;10328;50.042;8.238;2022-08-25T00:53:35;22.00;99.90
20341;DHT22;10328;50.042;8.238;2022-08-25T00:56:02;22.00;99.90
20341;DHT22;10328;50.042;8.238;2022-08-25T00:58:30;21.90;99.90
20341;DHT22;10328;50.042;8.238;2022-08-25T01:00:57;21.90;99.90
20341;DHT22;10328;50.042;8.238;2022-08-25T01:03:27;21.90;99.90
20341;DHT22;10328;50.042;8.238;2022-08-25T01:06:02;21.90;99.90
20341;DHT22;10328;50.042;8.238;2022-08-25T01:08:31;22.00;99.90
20341;DHT22;10328;50.042;8.238;2022-08-25T01:11:01;21.90;99.90
20341;DHT22;10328;50.042;8.238;2022-08-25T01:13:33;21.90;99.90
20341;DHT22;10328;50.042;8.238;2022-08-25T01:16:01;21.90;99.90
20341;DHT22;10328;50.042;8.238;2022-08-25T01:18:28;21.90;99.90
20341;DHT22;10328;50.042;8.238;2022-08-25T01:21:07;22.10;99.90
20341;DHT22;10328;50.042;8.238;2022-08-25T01:23:33;22.00;99.90
20341;DHT22;10328;50.042;8.238;2022-08-25T01:26:13;22.00;99.90
20341;DHT22;10328;50.042;8.238;2022-08-25T01:28:42;21.90;99.90
20341;DHT22;10328;50.042;8.238;2022-08-25T01:31:30;21.90;99.90
20341;DHT22;10328;50.042;8.238;2022-08-25T01:33:58;21.80;99.90
20341;DHT22;10328;50.042;8.238;2022-08-25T01:36:27;21.90;99.90
20341;DHT22;10328;50.042;8.238;2022-08-25T01:38:54;21.80;99.90
20341;DHT22;10328;50.042;8.238;2022-08-25T01:44:04;21.70;99.90
20341;DHT22;10328;50.042;8.238;2022-08-25T01:46:42;21.50;99.90
20341;DHT22;10328;50.042;8.238;2022-08-25T01:49:09;21.30;99.90
20341;DHT22;10328;50.042;8.238;2022-08-25T01:51:47;21.20;99.90
20341;DHT22;10328;50.042;8.238;2022-08-25T01:54:14;21.10;99.90
20341;DHT22;10328;50.042;8.238;2022-08-25T01:56:40;21.00;99.90
20341;DHT22;10328;50.042;8.238;2022-08-25T01:59:07;21.10;99.90
20341;DHT22;10328;50.042;8.238;2022-08-25T02:01:34;21.10;99.90
20341;DHT22;10328;50.042;8.238;2022-08-25T02:04:01;21.00;99.90
20341;DHT22;10328;50.042;8.238;2022-08-25T02:06:31;21.00;99.90
20341;DHT22;10328;50.042;8.238;2022-08-25T02:09:02;20.90;99.90
20341;DHT22;10328;50.042;8.238;2022-08-25T02:11:31;20.90;99.90
20341;DHT22;10328;50.042;8.238;2022-08-25T02:13:58;20.80;99.90
20341;DHT22;10328;50.042;8.238;2022-08-25T02:16:28;20.60;99.90
20341;DHT22;10328;50.042;8.238;2022-08-25T02:18:56;20.50;99.90
20341;DHT22;10328;50.042;8.238;2022-08-25T02:21:24;20.40;99.90
20341;DHT22;10328;50.042;8.238;2022-08-25T02:23:51;20.30;99.90
20341;DHT22;10328;50.042;8.238;2022-08-25T02:26:18;20.20;99.90
20341;DHT22;10328;50.042;8.238;2022-08-25T02:28:46;20.10;99.90
20341;DHT22;10328;50.042;8.238;2022-08-25T02:31:14;20.10;99.90
20341;DHT22;10328;50.042;8.238;2022-08-25T02:33:40;20.10;99.90
20341;DHT22;10328;50.042;8.238;2022-08-25T02:36:08;20.00;99.90
20341;DHT22;10328;50.042;8.238;2022-08-25T02:38:35;19.90;99.90
20341;DHT22;10328;50.042;8.238;2022-08-25T02:41:09;19.80;99.90
20341;DHT22;10328;50.042;8.238;2022-08-25T02:43:39;19.80;99.90
20341;DHT22;10328;50.042;8.238;2022-08-25T02:46:08;19.80;99.90
20341;DHT22;10328;50.042;8.238;2022-08-25T02:48:35;19.70;99.90
20341;DHT22;10328;50.042;8.238;2022-08-25T02:51:03;19.80;99.90
20341;DHT22;10328;50.042;8.238;2022-08-25T02:53:32;19.80;99.90
20341;DHT22;10328;50.042;8.238;2022-08-25T02:55:59;19.90;99.90
20341;DHT22;10328;50.042;8.238;2022-08-25T02:58:26;19.80;99.90
20341;DHT22;10328;50.042;8.238;2022-08-25T03:00:54;19.80;99.90
20341;DHT22;10328;50.042;8.238;2022-08-25T03:03:22;19.70;99.90
20341;DHT22;10328;50.042;8.238;2022-08-25T03:05:48;19.60;99.90
20341;DHT22;10328;50.042;8.238;2022-08-25T03:08:15;19.60;99.90
20341;DHT22;10328;50.042;8.238;2022-08-25T03:10:42;19.70;99.90
20341;DHT22;10328;50.042;8.238;2022-08-25T03:13:08;19.70;99.90
20341;DHT22;10328;50.042;8.238;2022-08-25T03:15:35;19.70;99.90
20341;DHT22;10328;50.042;8.238;2022-08-25T03:18:04;19.70;99.90
20341;DHT22;10328;50.042;8.238;2022-08-25T03:20:34;19.60;99.90
20341;DHT22;10328;50.042;8.238;2022-08-25T03:23:02;19.50;99.90
20341;DHT22;10328;50.042;8.238;2022-08-25T03:25:29;19.50;99.90
20341;DHT22;10328;50.042;8.238;2022-08-25T03:28:14;19.50;99.90
20341;DHT22;10328;50.042;8.238;2022-08-25T03:30:41;19.50;99.90
20341;DHT22;10328;50.042;8.238;2022-08-25T03:33:08;19.40;99.90
20341;DHT22;10328;50.042;8.238;2022-08-25T03:35:35;19.40;99.90
20341;DHT22;10328;50.042;8.238;2022-08-25T03:38:02;19.40;99.90
20341;DHT22;10328;50.042;8.238;2022-08-25T03:40:29;19.50;99.90
20341;DHT22;10328;50.042;8.238;2022-08-25T03:42:55;19.50;99.90
20341;DHT22;10328;50.042;8.238;2022-08-25T03:45:24;19.50;99.90
20341;DHT22;10328;50.042;8.238;2022-08-25T03:47:51;19.40;99.90
20341;DHT22;10328;50.042;8.238;2022-08-25T03:50:20;19.40;99.90
20341;DHT22;10328;50.042;8.238;2022-08-25T03:52:55;19.40;99.90
20341;DHT22;10328;50.042;8.238;2022-08-25T03:55:23;19.30;99.90
20341;DHT22;10328;50.042;8.238;2022-08-25T03:57:51;19.30;99.90
20341;DHT22;10328;50.042;8.238;2022-08-25T04:00:19;19.30;99.90
20341;DHT22;10328;50.042;8.238;2022-08-25T04:02:46;19.40;99.90
20341;DHT22;10328;50.042;8.238;2022-08-25T04:05:13;19.40;99.90
20341;DHT22;10328;50.042;8.238;2022-08-25T04:07:41;19.40;99.90
20341;DHT22;10328;50.042;8.238;2022-08-25T04:10:09;19.40;99.90
20341;DHT22;10328;50.042;8.238;2022-08-25T04:12:36;19.50;99.90
20341;DHT22;10328;50.042;8.238;2022-08-25T04:15:04;19.50;99.90
20341;DHT22;10328;50.042;8.238;2022-08-25T04:17:31;19.60;99.90
20341;DHT22;10328;50.042;8.238;2022-08-25T04:20:00;19.70;99.90
20341;DHT22;10328;50.042;8.238;2022-08-25T04:22:27;19.80;99.90
20341;DHT22;10328;50.042;8.238;2022-08-25T04:24:56;19.80;99.90
20341;DHT22;10328;50.042;8.238;2022-08-25T04:27:23;19.70;99.90
20341;DHT22;10328;50.042;8.238;2022-08-25T04:29:50;19.60;99.90
20341;DHT22;10328;50.042;8.238;2022-08-25T04:32:16;19.50;99.90
20341;DHT22;10328;50.042;8.238;2022-08-25T04:34:43;19.40;99.90
20341;DHT22;10328;50.042;8.238;2022-08-25T04:37:10;19.40;99.90
20341;DHT22;10328;50.042;8.238;2022-08-25T04:39:36;19.30;99.90
20341;DHT22;10328;50.042;8.238;2022-08-25T04:42:03;19.20;99.90
20341;DHT22;10328;50.042;8.238;2022-08-25T04:44:30;19.10;99.90
20341;DHT22;10328;50.042;8.238;2022-08-25T04:46:58;19.00;99.90
20341;DHT22;10328;50.042;8.238;2022-08-25T04:49:25;18.90;99.90
20341;DHT22;10328;50.042;8.238;2022-08-25T04:51:52;19.00;99.90
20341;DHT22;10328;50.042;8.238;2022-08-25T04:54:19;19.10;99.90
20341;DHT22;10328;50.042;8.238;2022-08-25T04:56:48;19.20;99.90
20341;DHT22;10328;50.042;8.238;2022-08-25T04:59:19;19.10;99.90
20341;DHT22;10328;50.042;8.238;2022-08-25T05:01:46;19.10;99.90
20341;DHT22;10328;50.042;8.238;2022-08-25T05:04:20;19.20;99.90
20341;DHT22;10328;50.042;8.238;2022-08-25T05:06:55;19.40;99.90
20341;DHT22;10328;50.042;8.238;2022-08-25T05:09:22;19.40;99.90
20341;DHT22;10328;50.042;8.238;2022-08-25T05:11:50;19.40;99.90
20341;DHT22;10328;50.042;8.238;2022-08-25T05:14:17;19.60;99.90
20341;DHT22;10328;50.042;8.238;2022-08-25T05:16:51;19.70;99.90
20341;DHT22;10328;50.042;8.238;2022-08-25T05:19:18;19.80;99.90
20341;DHT22;10328;50.042;8.238;2022-08-25T05:21:44;19.90;99.90
20341;DHT22;10328;50.042;8.238;2022-08-25T05:24:11;19.90;99.90
20341;DHT22;10328;50.042;8.238;2022-08-25T05:26:38;20.00;99.90
20341;DHT22;10328;50.042;8.238;2022-08-25T05:29:05;19.90;99.90
20341;DHT22;10328;50.042;8.238;2022-08-25T05:31:32;19.90;99.90
20341;DHT22;10328;50.042;8.238;2022-08-25T05:34:07;19.90;99.90
20341;DHT22;10328;50.042;8.238;2022-08-25T05:36:34;19.90;99.90
20341;DHT22;10328;50.042;8.238;2022-08-25T05:39:02;20.00;99.90
20341;DHT22;10328;50.042;8.238;2022-08-25T05:41:30;20.20;99.90
20341;DHT22;10328;50.042;8.238;2022-08-25T05:43:57;20.30;99.90
20341;DHT22;10328;50.042;8.238;2022-08-25T05:46:24;20.30;99.90
20341;DHT22;10328;50.042;8.238;2022-08-25T05:48:52;20.30;99.90
20341;DHT22;10328;50.042;8.238;2022-08-25T05:51:19;20.30;99.90
20341;DHT22;10328;50.042;8.238;2022-08-25T05:53:48;20.40;99.90
20341;DHT22;10328;50.042;8.238;2022-08-25T05:56:15;20.40;99.90
20341;DHT22;10328;50.042;8.238;2022-08-25T05:58:43;20.50;99.90
20341;DHT22;10328;50.042;8.238;2022-08-25T06:01:18;20.60;99.90
20341;DHT22;10328;50.042;8.238;2022-08-25T06:04:03;20.70;99.90
20341;DHT22;10328;50.042;8.238;2022-08-25T06:06:30;20.80;99.90
20341;DHT22;10328;50.042;8.238;2022-08-25T06:08:57;20.90;99.90
20341;DHT22;10328;50.042;8.238;2022-08-25T06:11:24;21.00;99.90
20341;DHT22;10328;50.042;8.238;2022-08-25T06:13:50;21.20;99.90
20341;DHT22;10328;50.042;8.238;2022-08-25T06:16:17;21.20;99.90
20341;DHT22;10328;50.042;8.238;2022-08-25T06:18:44;21.30;99.90
20341;DHT22;10328;50.042;8.238;2022-08-25T06:21:13;21.40;99.90
20341;DHT22;10328;50.042;8.238;2022-08-25T06:23:40;21.50;99.90
20341;DHT22;10328;50.042;8.238;2022-08-25T06:26:11;21.70;99.90
20341;DHT22;10328;50.042;8.238;2022-08-25T06:28:47;21.90;99.90
20341;DHT22;10328;50.042;8.238;2022-08-25T06:31:14;22.10;99.90
20341;DHT22;10328;50.042;8.238;2022-08-25T06:33:41;22.20;99.90
20341;DHT22;10328;50.042;8.238;2022-08-25T06:36:08;22.40;99.90
20341;DHT22;10328;50.042;8.238;2022-08-25T06:38:35;22.50;99.90
20341;DHT22;10328;50.042;8.238;2022-08-25T06:41:05;22.70;99.90
20341;DHT22;10328;50.042;8.238;2022-08-25T06:43:33;22.90;99.90
20341;DHT22;10328;50.042;8.238;2022-08-25T06:46:16;23.00;99.90
20341;DHT22;10328;50.042;8.238;2022-08-25T06:48:43;23.20;99.90
20341;DHT22;10328;50.042;8.238;2022-08-25T06:51:13;23.40;99.90
20341;DHT22;10328;50.042;8.238;2022-08-25T06:53:41;23.40;99.90
20341;DHT22;10328;50.042;8.238;2022-08-25T06:56:08;23.60;99.90
20341;DHT22;10328;50.042;8.238;2022-08-25T06:58:35;23.80;99.90
20341;DHT22;10328;50.042;8.238;2022-08-25T07:01:16;23.90;99.90
20341;DHT22;10328;50.042;8.238;2022-08-25T07:03:46;23.90;99.90
20341;DHT22;10328;50.042;8.238;2022-08-25T07:06:14;24.10;99.90
20341;DHT22;10328;50.042;8.238;2022-08-25T07:08:44;24.10;99.90
20341;DHT22;10328;50.042;8.238;2022-08-25T07:11:12;24.20;99.90
20341;DHT22;10328;50.042;8.238;2022-08-25T07:13:43;24.30;99.90
20341;DHT22;10328;50.042;8.238;2022-08-25T07:16:10;24.50;99.90
20341;DHT22;10328;50.042;8.238;2022-08-25T07:18:37;24.80;99.90
20341;DHT22;10328;50.042;8.238;2022-08-25T07:21:04;25.20;99.90
20341;DHT22;10328;50.042;8.238;2022-08-25T07:23:35;25.60;99.90
20341;DHT22;10328;50.042;8.238;2022-08-25T07:26:14;25.70;99.90
20341;DHT22;10328;50.042;8.238;2022-08-25T07:29:13;25.80;99.90
20341;DHT22;10328;50.042;8.238;2022-08-25T07:31:40;25.90;99.90
20341;DHT22;10328;50.042;8.238;2022-08-25T07:34:07;26.10;99.90
20341;DHT22;10328;50.042;8.238;2022-08-25T07:36:54;26.30;99.90
20341;DHT22;10328;50.042;8.238;2022-08-25T07:39:22;26.40;99.90
20341;DHT22;10328;50.042;8.238;2022-08-25T07:41:50;26.30;99.90
20341;DHT22;10328;50.042;8.238;2022-08-25T07:44:19;26.20;99.90
20341;DHT22;10328;50.042;8.238;2022-08-25T07:46:45;26.30;99.90
20341;DHT22;10328;50.042;8.238;2022-08-25T07:49:12;26.40;99.90
20341;DHT22;10328;50.042;8.238;2022-08-25T07:51:43;26.60;99.90
20341;DHT22;10328;50.042;8.238;2022-08-25T07:54:30;26.70;99.90
20341;DHT22;10328;50.042;8.238;2022-08-25T07:57:01;26.90;99.90
20341;DHT22;10328;50.042;8.238;2022-08-25T07:59:28;26.90;99.90
20341;DHT22;10328;50.042;8.238;2022-08-25T08:02:04;26.90;99.90
20341;DHT22;10328;50.042;8.238;2022-08-25T08:04:31;27.00;99.90
20341;DHT22;10328;50.042;8.238;2022-08-25T08:06:57;27.00;99.90
20341;DHT22;10328;50.042;8.238;2022-08-25T08:09:25;27.20;99.90
20341;DHT22;10328;50.042;8.238;2022-08-25T08:11:52;27.30;99.90
20341;DHT22;10328;50.042;8.238;2022-08-25T08:14:20;27.30;99.90
20341;DHT22;10328;50.042;8.238;2022-08-25T08:16:46;27.40;99.90
20341;DHT22;10328;50.042;8.238;2022-08-25T08:19:13;27.40;99.90
20341;DHT22;10328;50.042;8.238;2022-08-25T08:21:40;27.30;99.90
20341;DHT22;10328;50.042;8.238;2022-08-25T08:24:07;27.20;99.90
20341;DHT22;10328;50.042;8.238;2022-08-25T08:26:54;27.30;99.90
20341;DHT22;10328;50.042;8.238;2022-08-25T08:29:25;27.30;99.90
20341;DHT22;10328;50.042;8.238;2022-08-25T08:31:52;27.50;99.90
20341;DHT22;10328;50.042;8.238;2022-08-25T08:34:19;27.60;99.90
20341;DHT22;10328;50.042;8.238;2022-08-25T08:36:51;27.70;99.90
20341;DHT22;10328;50.042;8.238;2022-08-25T08:39:17;27.80;99.90
20341;DHT22;10328;50.042;8.238;2022-08-25T08:49:48;28.30;99.90
20341;DHT22;10328;50.042;8.238;2022-08-25T08:52:21;28.40;99.90
20341;DHT22;10328;50.042;8.238;2022-08-25T08:54:57;28.40;99.90
20341;DHT22;10328;50.042;8.238;2022-08-25T08:57:27;28.50;99.90
20341;DHT22;10328;50.042;8.238;2022-08-25T09:00:00;28.60;99.90
20341;DHT22;10328;50.042;8.238;2022-08-25T09:02:54;28.70;99.90
20341;DHT22;10328;50.042;8.238;2022-08-25T09:05:26;28.50;99.90
20341;DHT22;10328;50.042;8.238;2022-08-25T09:07:57;28.60;99.90
20341;DHT22;10328;50.042;8.238;2022-08-25T09:10:31;28.60;99.90
20341;DHT22;10328;50.042;8.238;2022-08-25T09:13:15;28.50;99.90
20341;DHT22;10328;50.042;8.238;2022-08-25T09:15:53;28.60;99.90
20341;DHT22;10328;50.042;8.238;2022-08-25T09:22:12;28.90;99.90
20341;DHT22;10328;50.042;8.238;2022-08-25T09:30:51;28.90;99.90
20341;DHT22;10328;50.042;8.238;2022-08-25T09:33:21;28.70;99.90
20341;DHT22;10328;50.042;8.238;2022-08-25T09:35:50;28.70;99.90
20341;DHT22;10328;50.042;8.238;2022-08-25T09:38:19;28.80;99.90
20341;DHT22;10328;50.042;8.238;2022-08-25T09:40:49;29.00;99.90
20341;DHT22;10328;50.042;8.238;2022-08-25T09:54:04;28.70;99.90
20341;DHT22;10328;50.042;8.238;2022-08-25T09:56:54;28.70;99.90
20341;DHT22;10328;50.042;8.238;2022-08-25T09:59:29;29.00;99.90
20341;DHT22;10328;50.042;8.238;2022-08-25T10:02:09;29.00;99.90
20341;DHT22;10328;50.042;8.238;2022-08-25T10:04:46;29.30;99.90
20341;DHT22;10328;50.042;8.238;2022-08-25T10:07:25;29.30;99.90
20341;DHT22;10328;50.042;8.238;2022-08-25T10:09:56;29.60;99.90
20341;DHT22;10328;50.042;8.238;2022-08-25T10:12:38;29.70;99.90
20341;DHT22;10328;50.042;8.238;2022-08-25T10:15:35;29.90;99.90
20341;DHT22;10328;50.042;8.238;2022-08-25T10:18:26;30.10;99.90
20341;DHT22;10328;50.042;8.238;2022-08-25T10:23:29;30.00;99.90
20341;DHT22;10328;50.042;8.238;2022-08-25T10:26:02;29.90;99.90
20341;DHT22;10328;50.042;8.238;2022-08-25T10:31:47;30.10;99.90
20341;DHT22;10328;50.042;8.238;2022-08-25T10:34:41;30.30;99.90
20341;DHT22;10328;50.042;8.238;2022-08-25T10:43:04;30.50;99.90
20341;DHT22;10328;50.042;8.238;2022-08-25T10:45:57;30.60;99.90
20341;DHT22;10328;50.042;8.238;2022-08-25T10:56:33;31.70;99.90
20341;DHT22;10328;50.042;8.238;2022-08-25T11:02:16;31.70;99.90
20341;DHT22;10328;50.042;8.238;2022-08-25T11:05:01;31.90;99.90
20341;DHT22;10328;50.042;8.238;2022-08-25T11:12:44;33.00;99.90
20341;DHT22;10328;50.042;8.238;2022-08-25T11:15:46;33.10;99.90
20341;DHT22;10328;50.042;8.238;2022-08-25T11:18:29;32.90;99.90
20341;DHT22;10328;50.042;8.238;2022-08-25T11:21:06;32.70;99.90
20341;DHT22;10328;50.042;8.238;2022-08-25T11:23:52;32.80;99.70
20341;DHT22;10328;50.042;8.238;2022-08-25T11:26:27;33.00;99.30
20341;DHT22;10328;50.042;8.238;2022-08-25T11:29:15;33.00;99.10
20341;DHT22;10328;50.042;8.238;2022-08-25T11:31:46;33.10;99.20
20341;DHT22;10328;50.042;8.238;2022-08-25T11:34:19;33.20;98.90
20341;DHT22;10328;50.042;8.238;2022-08-25T11:37:23;33.30;99.20
20341;DHT22;10328;50.042;8.238;2022-08-25T11:40:07;33.40;98.20
20341;DHT22;10328;50.042;8.238;2022-08-25T11:45:41;33.90;98.50
20341;DHT22;10328;50.042;8.238;2022-08-25T11:48:45;34.20;97.90
20341;DHT22;10328;50.042;8.238;2022-08-25T11:51:32;34.20;97.60
20341;DHT22;10328;50.042;8.238;2022-08-25T11:54:28;34.20;97.40
20341;DHT22;10328;50.042;8.238;2022-08-25T11:57:03;33.90;97.50
20341;DHT22;10328;50.042;8.238;2022-08-25T12:02:43;33.00;98.40
20341;DHT22;10328;50.042;8.238;2022-08-25T12:08:05;32.70;98.70
20341;DHT22;10328;50.042;8.238;2022-08-25T12:10:55;32.60;98.90
20341;DHT22;10328;50.042;8.238;2022-08-25T12:13:47;32.40;99.00
20341;DHT22;10328;50.042;8.238;2022-08-25T12:22:37;31.70;99.20
20341;DHT22;10328;50.042;8.238;2022-08-25T12:24:55;31.70;99.20
20341;DHT22;10328;50.042;8.238;2022-08-25T12:27:53;31.80;99.20
20341;DHT22;10328;50.042;8.238;2022-08-25T12:30:44;32.20;99.00
20341;DHT22;10328;50.042;8.238;2022-08-25T12:36:06;33.20;98.20
20341;DHT22;10328;50.042;8.238;2022-08-25T12:38:43;33.50;98.00
20341;DHT22;10328;50.042;8.238;2022-08-25T12:41:23;33.60;97.50
20341;DHT22;10328;50.042;8.238;2022-08-25T12:43:53;33.60;98.00
20341;DHT22;10328;50.042;8.238;2022-08-25T12:46:37;33.80;97.20
20341;DHT22;10328;50.042;8.238;2022-08-25T12:49:28;33.30;97.30
20341;DHT22;10328;50.042;8.238;2022-08-25T12:54:42;33.30;97.40
20341;DHT22;10328;50.042;8.238;2022-08-25T12:57:36;33.60;97.00
20341;DHT22;10328;50.042;8.238;2022-08-25T13:00:22;34.10;96.70
20341;DHT22;10328;50.042;8.238;2022-08-25T13:11:45;35.00;95.60
20341;DHT22;10328;50.042;8.238;2022-08-25T13:14:21;34.90;95.50
20341;DHT22;10328;50.042;8.238;2022-08-25T13:16:54;34.80;95.60
20341;DHT22;10328;50.042;8.238;2022-08-25T13:19:22;34.70;95.90
20341;DHT22;10328;50.042;8.238;2022-08-25T13:21:50;34.50;95.80
20341;DHT22;10328;50.042;8.238;2022-08-25T13:24:32;34.40;96.00
20341;DHT22;10328;50.042;8.238;2022-08-25T13:27:08;34.40;95.60
20341;DHT22;10328;50.042;8.238;2022-08-25T13:29:59;34.50;95.30
20341;DHT22;10328;50.042;8.238;2022-08-25T13:32:35;34.50;94.90
20341;DHT22;10328;50.042;8.238;2022-08-25T13:35:13;34.70;95.20
20341;DHT22;10328;50.042;8.238;2022-08-25T13:37:43;35.00;95.10
20341;DHT22;10328;50.042;8.238;2022-08-25T13:40:25;35.40;94.80
20341;DHT22;10328;50.042;8.238;2022-08-25T13:43:01;35.30;95.00
20341;DHT22;10328;50.042;8.238;2022-08-25T13:45:31;35.00;94.80
20341;DHT22;10328;50.042;8.238;2022-08-25T13:48:08;35.10;94.70
20341;DHT22;10328;50.042;8.238;2022-08-25T13:50:49;35.10;94.60
20341;DHT22;10328;50.042;8.238;2022-08-25T13:53:24;34.90;94.90
20341;DHT22;10328;50.042;8.238;2022-08-25T13:55:53;34.60;95.10
20341;DHT22;10328;50.042;8.238;2022-08-25T13:58:28;34.40;95.00
20341;DHT22;10328;50.042;8.238;2022-08-25T14:01:27;34.20;95.00
20341;DHT22;10328;50.042;8.238;2022-08-25T14:09:48;34.30;94.90
20341;DHT22;10328;50.042;8.238;2022-08-25T14:17:28;34.00;95.20
20341;DHT22;10328;50.042;8.238;2022-08-25T14:20:19;34.00;94.90
20341;DHT22;10328;50.042;8.238;2022-08-25T14:22:49;33.90;95.00
20341;DHT22;10328;50.042;8.238;2022-08-25T14:25:19;33.80;94.80
20341;DHT22;10328;50.042;8.238;2022-08-25T14:27:54;33.80;95.00
20341;DHT22;10328;50.042;8.238;2022-08-25T14:30:46;33.70;95.00
20341;DHT22;10328;50.042;8.238;2022-08-25T14:33:17;33.70;95.00
20341;DHT22;10328;50.042;8.238;2022-08-25T14:35:48;33.70;94.00
20341;DHT22;10328;50.042;8.238;2022-08-25T14:38:16;33.70;94.80
20341;DHT22;10328;50.042;8.238;2022-08-25T14:40:46;33.80;94.00
20341;DHT22;10328;50.042;8.238;2022-08-25T14:43:13;34.00;94.30
20341;DHT22;10328;50.042;8.238;2022-08-25T14:45:43;34.00;94.20
20341;DHT22;10328;50.042;8.238;2022-08-25T14:48:41;34.10;94.40
20341;DHT22;10328;50.042;8.238;2022-08-25T14:51:10;34.00;94.30
20341;DHT22;10328;50.042;8.238;2022-08-25T14:53:37;34.00;94.10
20341;DHT22;10328;50.042;8.238;2022-08-25T14:56:05;33.70;94.10
20341;DHT22;10328;50.042;8.238;2022-08-25T14:58:36;33.20;94.60
20341;DHT22;10328;50.042;8.238;2022-08-25T15:01:19;33.00;94.60
20341;DHT22;10328;50.042;8.238;2022-08-25T15:04:08;33.00;94.40
20341;DHT22;10328;50.042;8.238;2022-08-25T15:06:37;33.00;94.70
20341;DHT22;10328;50.042;8.238;2022-08-25T15:09:11;33.00;94.50
20341;DHT22;10328;50.042;8.238;2022-08-25T15:11:47;33.20;94.50
20341;DHT22;10328;50.042;8.238;2022-08-25T15:14:18;33.20;94.70
20341;DHT22;10328;50.042;8.238;2022-08-25T15:16:58;33.20;94.50
20341;DHT22;10328;50.042;8.238;2022-08-25T15:19:26;33.40;94.60
20341;DHT22;10328;50.042;8.238;2022-08-25T15:21:53;33.40;94.10
20341;DHT22;10328;50.042;8.238;2022-08-25T15:24:25;33.40;94.20
20341;DHT22;10328;50.042;8.238;2022-08-25T15:26:58;33.30;94.20
20341;DHT22;10328;50.042;8.238;2022-08-25T15:29:27;33.00;93.60
20341;DHT22;10328;50.042;8.238;2022-08-25T15:31:56;32.80;93.80
20341;DHT22;10328;50.042;8.238;2022-08-25T15:34:24;32.70;93.30
20341;DHT22;10328;50.042;8.238;2022-08-25T15:36:50;32.50;94.20
20341;DHT22;10328;50.042;8.238;2022-08-25T15:39:17;32.50;93.50
20341;DHT22;10328;50.042;8.238;2022-08-25T15:41:46;32.40;93.60
20341;DHT22;10328;50.042;8.238;2022-08-25T15:44:18;32.60;93.80
20341;DHT22;10328;50.042;8.238;2022-08-25T15:46:45;32.70;93.30
20341;DHT22;10328;50.042;8.238;2022-08-25T15:49:16;32.90;93.30
20341;DHT22;10328;50.042;8.238;2022-08-25T15:51:52;33.10;93.30
20341;DHT22;10328;50.042;8.238;2022-08-25T15:54:21;33.30;93.00
20341;DHT22;10328;50.042;8.238;2022-08-25T15:56:48;33.20;93.00
20341;DHT22;10328;50.042;8.238;2022-08-25T15:59:17;33.30;93.10
20341;DHT22;10328;50.042;8.238;2022-08-25T16:01:48;33.40;93.00
20341;DHT22;10328;50.042;8.238;2022-08-25T16:04:23;33.40;93.30
20341;DHT22;10328;50.042;8.238;2022-08-25T16:06:51;33.50;93.00
20341;DHT22;10328;50.042;8.238;2022-08-25T16:09:18;33.50;93.60
20341;DHT22;10328;50.042;8.238;2022-08-25T16:11:49;33.50;93.10
20341;DHT22;10328;50.042;8.238;2022-08-25T16:14:23;33.50;93.20
20341;DHT22;10328;50.042;8.238;2022-08-25T16:16:50;33.50;93.60
20341;DHT22;10328;50.042;8.238;2022-08-25T16:19:17;33.50;93.30
20341;DHT22;10328;50.042;8.238;2022-08-25T16:21:44;33.00;93.70
20341;DHT22;10328;50.042;8.238;2022-08-25T16:24:14;32.80;93.80
20341;DHT22;10328;50.042;8.238;2022-08-25T16:26:41;32.50;94.00
20341;DHT22;10328;50.042;8.238;2022-08-25T16:29:14;32.40;94.10
20341;DHT22;10328;50.042;8.238;2022-08-25T16:31:42;32.40;95.00
20341;DHT22;10328;50.042;8.238;2022-08-25T16:34:09;32.20;94.70
20341;DHT22;10328;50.042;8.238;2022-08-25T16:36:36;32.10;94.70
20341;DHT22;10328;50.042;8.238;2022-08-25T16:39:04;31.90;94.90
20341;DHT22;10328;50.042;8.238;2022-08-25T16:41:35;32.00;94.50
20341;DHT22;10328;50.042;8.238;2022-08-25T16:44:05;32.00;94.40
20341;DHT22;10328;50.042;8.238;2022-08-25T16:46:37;32.00;94.50
20341;DHT22;10328;50.042;8.238;2022-08-25T16:49:06;31.90;94.90
20341;DHT22;10328;50.042;8.238;2022-08-25T16:51:33;31.80;94.90
20341;DHT22;10328;50.042;8.238;2022-08-25T16:54:01;31.70;94.70
20341;DHT22;10328;50.042;8.238;2022-08-25T16:56:48;31.70;94.80
20341;DHT22;10328;50.042;8.238;2022-08-25T16:59:21;31.60;94.80
20341;DHT22;10328;50.042;8.238;2022-08-25T17:01:49;31.60;94.70
20341;DHT22;10328;50.042;8.238;2022-08-25T17:04:17;31.50;95.60
20341;DHT22;10328;50.042;8.238;2022-08-25T17:06:44;31.50;95.30
20341;DHT22;10328;50.042;8.238;2022-08-25T17:09:18;31.50;95.00
20341;DHT22;10328;50.042;8.238;2022-08-25T17:11:50;31.50;96.10
20341;DHT22;10328;50.042;8.238;2022-08-25T17:14:20;31.40;95.20
20341;DHT22;10328;50.042;8.238;2022-08-25T17:16:47;31.30;95.10
20341;DHT22;10328;50.042;8.238;2022-08-25T17:19:17;31.30;95.70
20341;DHT22;10328;50.042;8.238;2022-08-25T17:21:45;31.30;96.10
20341;DHT22;10328;50.042;8.238;2022-08-25T17:24:12;31.10;96.30
20341;DHT22;10328;50.042;8.238;2022-08-25T17:26:43;31.00;96.50
20341;DHT22;10328;50.042;8.238;2022-08-25T17:29:11;31.00;96.60
20341;DHT22;10328;50.042;8.238;2022-08-25T17:31:38;30.90;96.80
20341;DHT22;10328;50.042;8.238;2022-08-25T17:34:08;30.80;96.70
20341;DHT22;10328;50.042;8.238;2022-08-25T17:36:37;30.80;97.00
20341;DHT22;10328;50.042;8.238;2022-08-25T17:39:07;30.70;96.90
20341;DHT22;10328;50.042;8.238;2022-08-25T17:41:34;30.60;97.00